sensor_id;sensor_type;location;lat;lon;timestamp;pressure;altitude;pressure_sealevel;temperature;humidity
7802;BME280;3945;48.952;9.506;2022-07-23T00:01:34;97961.81;;;24.54;58.95
7802;BME280;3945;48.952;9.506;2022-07-23T00:04:00;97966.22;;;24.67;57.75
7802;BME280;3945;48.952;9.506;2022-07-23T00:06:27;97966.63;;;24.77;57.09
7802;BME280;3945;48.952;9.506;2022-07-23T00:08:53;97954.16;;;24.97;55.11
7802;BME280;3945;48.952;9.506;2022-07-23T00:11:19;97949.06;;;25.08;54.97
7802;BME280;3945;48.952;9.506;2022-07-23T00:13:47;97948.53;;;25.14;54.56
7802;BME280;3945;48.952;9.506;2022-07-23T00:16:13;97949.94;;;25.20;53.29
7802;BME280;3945;48.952;9.506;2022-07-23T00:18:41;97952.91;;;25.27;53.36
7802;BME280;3945;48.952;9.506;2022-07-23T00:21:07;97941.66;;;25.29;52.63
7802;BME280;3945;48.952;9.506;2022-07-23T00:23:33;97937.47;;;25.32;52.21
7802;BME280;3945;48.952;9.506;2022-07-23T00:25:59;97924.31;;;25.34;52.42
7802;BME280;3945;48.952;9.506;2022-07-23T00:28:26;97915.09;;;25.38;51.91
7802;BME280;3945;48.952;9.506;2022-07-23T00:30:52;97911.59;;;25.38;51.67
7802;BME280;3945;48.952;9.506;2022-07-23T00:33:19;97917.59;;;25.43;51.92
7802;BME280;3945;48.952;9.506;2022-07-23T00:35:46;97908.66;;;25.43;52.07
7802;BME280;3945;48.952;9.506;2022-07-23T00:38:12;97909.00;;;25.41;51.91
7802;BME280;3945;48.952;9.506;2022-07-23T00:40:39;97913.19;;;25.39;52.20
7802;BME280;3945;48.952;9.506;2022-07-23T00:43:06;97904.91;;;25.35;52.58
7802;BME280;3945;48.952;9.506;2022-07-23T00:45:32;97905.56;;;25.32;53.17
7802;BME280;3945;48.952;9.506;2022-07-23T00:47:59;97905.09;;;25.30;52.93
7802;BME280;3945;48.952;9.506;2022-07-23T00:50:25;97907.72;;;25.26;52.99
7802;BME280;3945;48.952;9.506;2022-07-23T00:52:53;97918.28;;;25.28;52.76
7802;BME280;3945;48.952;9.506;2022-07-23T00:55:20;97916.22;;;25.25;53.38
7802;BME280;3945;48.952;9.506;2022-07-23T00:57:46;97906.91;;;25.26;52.23
7802;BME280;3945;48.952;9.506;2022-07-23T01:00:13;97910.44;;;25.26;52.58
7802;BME280;3945;48.952;9.506;2022-07-23T01:02:40;97905.00;;;25.26;52.57
7802;BME280;3945;48.952;9.506;2022-07-23T01:05:07;97914.28;;;25.25;52.99
7802;BME280;3945;48.952;9.506;2022-07-23T01:07:33;97923.59;;;25.24;54.25
7802;BME280;3945;48.952;9.506;2022-07-23T01:10:01;97917.56;;;25.19;53.89
7802;BME280;3945;48.952;9.506;2022-07-23T01:12:27;97918.22;;;25.16;53.99
7802;BME280;3945;48.952;9.506;2022-07-23T01:14:54;97901.63;;;25.09;53.96
7802;BME280;3945;48.952;9.506;2022-07-23T01:17:20;97901.97;;;25.07;53.74
7802;BME280;3945;48.952;9.506;2022-07-23T01:19:47;97912.28;;;25.02;54.48
7802;BME280;3945;48.952;9.506;2022-07-23T01:22:13;97912.97;;;24.99;54.62
7802;BME280;3945;48.952;9.506;2022-07-23T01:24:42;97896.81;;;24.94;53.93
7802;BME280;3945;48.952;9.506;2022-07-23T01:27:08;97898.94;;;24.88;54.28
7802;BME280;3945;48.952;9.506;2022-07-23T01:29:34;97901.97;;;24.86;54.49
7802;BME280;3945;48.952;9.506;2022-07-23T01:32:01;97899.16;;;24.83;54.54
7802;BME280;3945;48.952;9.506;2022-07-23T01:34:27;97897.88;;;24.80;54.61
7802;BME280;3945;48.952;9.506;2022-07-23T01:36:53;97888.78;;;24.76;54.56
7802;BME280;3945;48.952;9.506;2022-07-23T01:39:19;97896.81;;;24.73;54.41
7802;BME280;3945;48.952;9.506;2022-07-23T01:41:47;97898.31;;;24.70;54.89
7802;BME280;3945;48.952;9.506;2022-07-23T01:44:13;97893.72;;;24.62;55.58
7802;BME280;3945;48.952;9.506;2022-07-23T01:46:40;97902.44;;;24.56;55.96
7802;BME280;3945;48.952;9.506;2022-07-23T01:49:06;97894.31;;;24.47;56.60
7802;BME280;3945;48.952;9.506;2022-07-23T01:51:33;97898.09;;;24.34;57.28
7802;BME280;3945;48.952;9.506;2022-07-23T01:53:59;97913.47;;;24.30;57.32
7802;BME280;3945;48.952;9.506;2022-07-23T01:56:25;97912.09;;;24.24;57.64
7802;BME280;3945;48.952;9.506;2022-07-23T01:58:53;97914.16;;;24.18;58.56
7802;BME280;3945;48.952;9.506;2022-07-23T02:01:19;97903.66;;;24.08;58.67
7802;BME280;3945;48.952;9.506;2022-07-23T02:03:45;97896.34;;;24.00;58.81
7802;BME280;3945;48.952;9.506;2022-07-23T02:06:12;97889.84;;;23.92;59.04
7802;BME280;3945;48.952;9.506;2022-07-23T02:08:38;97897.25;;;23.83;58.93
7802;BME280;3945;48.952;9.506;2022-07-23T02:11:04;97906.25;;;23.75;59.20
7802;BME280;3945;48.952;9.506;2022-07-23T02:13:31;97904.97;;;23.72;58.94
7802;BME280;3945;48.952;9.506;2022-07-23T02:15:58;97910.41;;;23.72;59.26
7802;BME280;3945;48.952;9.506;2022-07-23T02:18:24;97909.16;;;23.70;59.59
7802;BME280;3945;48.952;9.506;2022-07-23T02:20:51;97906.59;;;23.65;60.36
7802;BME280;3945;48.952;9.506;2022-07-23T02:23:17;97907.28;;;23.62;60.37
7802;BME280;3945;48.952;9.506;2022-07-23T02:25:43;97903.59;;;23.58;60.32
7802;BME280;3945;48.952;9.506;2022-07-23T02:28:10;97906.34;;;23.49;61.67
7802;BME280;3945;48.952;9.506;2022-07-23T02:30:36;97918.03;;;23.41;62.35
7802;BME280;3945;48.952;9.506;2022-07-23T02:33:04;97918.03;;;23.32;62.54
7802;BME280;3945;48.952;9.506;2022-07-23T02:35:30;97925.22;;;23.28;62.44
7802;BME280;3945;48.952;9.506;2022-07-23T02:37:56;97929.72;;;23.24;62.60
7802;BME280;3945;48.952;9.506;2022-07-23T02:40:23;97927.31;;;23.23;62.22
7802;BME280;3945;48.952;9.506;2022-07-23T02:42:49;97931.03;;;23.18;62.50
7802;BME280;3945;48.952;9.506;2022-07-23T02:45:15;97934.06;;;23.00;62.57
7802;BME280;3945;48.952;9.506;2022-07-23T02:47:42;97936.47;;;22.92;62.68
7802;BME280;3945;48.952;9.506;2022-07-23T02:50:09;97944.47;;;22.80;64.12
7802;BME280;3945;48.952;9.506;2022-07-23T02:52:37;97950.00;;;22.58;64.81
7802;BME280;3945;48.952;9.506;2022-07-23T02:55:03;97954.47;;;22.45;65.50
7802;BME280;3945;48.952;9.506;2022-07-23T02:57:30;97960.38;;;22.39;65.51
7802;BME280;3945;48.952;9.506;2022-07-23T02:59:56;97963.22;;;22.34;65.42
7802;BME280;3945;48.952;9.506;2022-07-23T03:02:23;97964.97;;;22.30;65.73
7802;BME280;3945;48.952;9.506;2022-07-23T03:04:49;97969.44;;;22.26;65.54
7802;BME280;3945;48.952;9.506;2022-07-23T03:07:17;97972.16;;;22.26;65.22
7802;BME280;3945;48.952;9.506;2022-07-23T03:09:43;97971.16;;;22.22;65.18
7802;BME280;3945;48.952;9.506;2022-07-23T03:12:10;97975.78;;;22.21;65.08
7802;BME280;3945;48.952;9.506;2022-07-23T03:14:36;97978.34;;;22.17;64.78
7802;BME280;3945;48.952;9.506;2022-07-23T03:17:03;97984.22;;;22.11;65.66
7802;BME280;3945;48.952;9.506;2022-07-23T03:19:29;97975.09;;;22.07;65.64
7802;BME280;3945;48.952;9.506;2022-07-23T03:21:55;97982.59;;;22.01;66.34
7802;BME280;3945;48.952;9.506;2022-07-23T03:24:23;97991.03;;;22.00;66.61
7802;BME280;3945;48.952;9.506;2022-07-23T03:27:09;97984.91;;;21.94;66.75
7802;BME280;3945;48.952;9.506;2022-07-23T03:29:35;97996.38;;;21.91;66.99
7802;BME280;3945;48.952;9.506;2022-07-23T03:32:02;97998.56;;;21.80;67.62
7802;BME280;3945;48.952;9.506;2022-07-23T03:34:28;97999.91;;;21.61;68.23
7802;BME280;3945;48.952;9.506;2022-07-23T03:36:55;97990.28;;;21.55;68.85
7802;BME280;3945;48.952;9.506;2022-07-23T03:39:22;97993.09;;;21.41;68.72
7802;BME280;3945;48.952;9.506;2022-07-23T03:41:48;97985.91;;;21.36;68.50
7802;BME280;3945;48.952;9.506;2022-07-23T03:44:15;97986.06;;;21.40;68.19
7802;BME280;3945;48.952;9.506;2022-07-23T03:46:41;97986.41;;;21.38;68.56
7802;BME280;3945;48.952;9.506;2022-07-23T03:49:07;97993.03;;;21.32;69.03
7802;BME280;3945;48.952;9.506;2022-07-23T03:51:34;97995.06;;;21.27;69.19
7802;BME280;3945;48.952;9.506;2022-07-23T03:54:00;98002.34;;;21.18;69.15
7802;BME280;3945;48.952;9.506;2022-07-23T03:56:28;98006.44;;;21.15;69.30
7802;BME280;3945;48.952;9.506;2022-07-23T03:58:54;98003.91;;;21.19;69.02
7802;BME280;3945;48.952;9.506;2022-07-23T04:01:20;97999.81;;;21.21;68.97
7802;BME280;3945;48.952;9.506;2022-07-23T04:03:47;98004.13;;;21.22;69.18
7802;BME280;3945;48.952;9.506;2022-07-23T04:06:13;98007.84;;;21.13;69.58
7802;BME280;3945;48.952;9.506;2022-07-23T04:08:39;98008.94;;;21.12;69.83
7802;BME280;3945;48.952;9.506;2022-07-23T04:11:05;98004.44;;;21.07;69.43
7802;BME280;3945;48.952;9.506;2022-07-23T04:13:33;97992.38;;;21.13;69.22
7802;BME280;3945;48.952;9.506;2022-07-23T04:15:59;97986.69;;;21.15;69.44
7802;BME280;3945;48.952;9.506;2022-07-23T04:18:26;97992.91;;;21.15;69.63
7802;BME280;3945;48.952;9.506;2022-07-23T04:20:52;97998.31;;;21.15;69.58
7802;BME280;3945;48.952;9.506;2022-07-23T04:23:18;98003.44;;;21.17;70.11
7802;BME280;3945;48.952;9.506;2022-07-23T04:25:45;98002.72;;;21.11;70.79
7802;BME280;3945;48.952;9.506;2022-07-23T04:28:11;98002.84;;;21.06;71.24
7802;BME280;3945;48.952;9.506;2022-07-23T04:30:40;98008.56;;;21.04;70.86
7802;BME280;3945;48.952;9.506;2022-07-23T04:33:06;98009.88;;;21.07;70.74
7802;BME280;3945;48.952;9.506;2022-07-23T04:35:32;98008.75;;;21.08;70.95
7802;BME280;3945;48.952;9.506;2022-07-23T04:37:59;98008.13;;;21.11;71.44
7802;BME280;3945;48.952;9.506;2022-07-23T04:40:25;98011.03;;;21.15;71.12
7802;BME280;3945;48.952;9.506;2022-07-23T04:42:51;98010.22;;;21.14;71.86
7802;BME280;3945;48.952;9.506;2022-07-23T04:45:18;98012.03;;;21.19;71.49
7802;BME280;3945;48.952;9.506;2022-07-23T04:47:45;98016.66;;;21.18;72.95
7802;BME280;3945;48.952;9.506;2022-07-23T04:50:12;98007.44;;;21.19;72.87
7802;BME280;3945;48.952;9.506;2022-07-23T04:52:42;98012.41;;;21.26;72.48
7802;BME280;3945;48.952;9.506;2022-07-23T04:55:08;98005.00;;;21.31;72.23
7802;BME280;3945;48.952;9.506;2022-07-23T04:57:35;98000.25;;;21.37;72.73
7802;BME280;3945;48.952;9.506;2022-07-23T05:00:01;98005.03;;;21.40;72.92
7802;BME280;3945;48.952;9.506;2022-07-23T05:02:27;98012.53;;;21.43;72.70
7802;BME280;3945;48.952;9.506;2022-07-23T05:04:55;98010.34;;;21.45;74.03
7802;BME280;3945;48.952;9.506;2022-07-23T05:07:21;98014.16;;;21.44;72.18
7802;BME280;3945;48.952;9.506;2022-07-23T05:09:48;98011.31;;;21.49;72.76
7802;BME280;3945;48.952;9.506;2022-07-23T05:12:14;98018.97;;;21.56;73.32
7802;BME280;3945;48.952;9.506;2022-07-23T05:14:40;98025.88;;;21.62;73.93
7802;BME280;3945;48.952;9.506;2022-07-23T05:17:07;98018.91;;;21.69;73.28
7802;BME280;3945;48.952;9.506;2022-07-23T05:19:33;98023.41;;;21.74;73.28
7802;BME280;3945;48.952;9.506;2022-07-23T05:22:01;98034.59;;;21.81;73.25
7802;BME280;3945;48.952;9.506;2022-07-23T05:24:27;98027.78;;;21.92;73.54
7802;BME280;3945;48.952;9.506;2022-07-23T05:26:53;98027.09;;;22.09;72.97
7802;BME280;3945;48.952;9.506;2022-07-23T05:29:19;98019.47;;;22.19;73.01
7802;BME280;3945;48.952;9.506;2022-07-23T05:31:46;98029.75;;;22.31;72.86
7802;BME280;3945;48.952;9.506;2022-07-23T05:34:12;98031.84;;;22.43;72.93
7802;BME280;3945;48.952;9.506;2022-07-23T05:36:38;98039.84;;;22.56;71.80
7802;BME280;3945;48.952;9.506;2022-07-23T05:39:06;98040.84;;;22.69;70.34
7802;BME280;3945;48.952;9.506;2022-07-23T05:41:32;98039.94;;;22.82;70.98
7802;BME280;3945;48.952;9.506;2022-07-23T05:43:59;98042.84;;;23.03;71.30
7802;BME280;3945;48.952;9.506;2022-07-23T05:46:25;98042.50;;;23.30;71.32
7802;BME280;3945;48.952;9.506;2022-07-23T05:48:51;98042.84;;;23.55;68.17
7802;BME280;3945;48.952;9.506;2022-07-23T05:51:20;98055.75;;;23.66;66.18
7802;BME280;3945;48.952;9.506;2022-07-23T05:53:47;98052.72;;;23.77;66.18
7802;BME280;3945;48.952;9.506;2022-07-23T05:56:14;98045.50;;;23.81;65.08
7802;BME280;3945;48.952;9.506;2022-07-23T05:58:41;98051.72;;;23.81;64.41
7802;BME280;3945;48.952;9.506;2022-07-23T06:01:07;98054.94;;;23.83;64.31
7802;BME280;3945;48.952;9.506;2022-07-23T06:03:33;98066.13;;;23.82;63.98
7802;BME280;3945;48.952;9.506;2022-07-23T06:05:59;98068.97;;;23.85;63.70
7802;BME280;3945;48.952;9.506;2022-07-23T06:08:26;98070.88;;;23.85;64.39
7802;BME280;3945;48.952;9.506;2022-07-23T06:10:52;98083.38;;;23.86;64.63
7802;BME280;3945;48.952;9.506;2022-07-23T06:13:20;98080.31;;;23.87;64.84
7802;BME280;3945;48.952;9.506;2022-07-23T06:15:46;98090.88;;;23.89;64.41
7802;BME280;3945;48.952;9.506;2022-07-23T06:18:13;98096.00;;;23.90;64.90
7802;BME280;3945;48.952;9.506;2022-07-23T06:20:39;98095.22;;;23.90;64.88
7802;BME280;3945;48.952;9.506;2022-07-23T06:23:05;98104.63;;;23.92;65.17
7802;BME280;3945;48.952;9.506;2022-07-23T06:25:32;98105.28;;;23.89;65.23
7802;BME280;3945;48.952;9.506;2022-07-23T06:27:58;98094.25;;;23.86;65.25
7802;BME280;3945;48.952;9.506;2022-07-23T06:30:26;98082.56;;;23.85;65.46
7802;BME280;3945;48.952;9.506;2022-07-23T06:32:52;98082.91;;;23.84;65.57
7802;BME280;3945;48.952;9.506;2022-07-23T06:35:19;98078.09;;;23.89;65.00
7802;BME280;3945;48.952;9.506;2022-07-23T06:37:45;98068.97;;;23.94;64.53
7802;BME280;3945;48.952;9.506;2022-07-23T06:40:11;98063.38;;;23.99;64.79
7802;BME280;3945;48.952;9.506;2022-07-23T06:42:38;98056.56;;;24.13;63.96
7802;BME280;3945;48.952;9.506;2022-07-23T06:45:05;98053.69;;;24.27;62.42
7802;BME280;3945;48.952;9.506;2022-07-23T06:47:33;98057.72;;;24.50;61.30
7802;BME280;3945;48.952;9.506;2022-07-23T06:49:59;98059.56;;;24.67;62.07
7802;BME280;3945;48.952;9.506;2022-07-23T06:52:26;98053.09;;;24.72;60.92
7802;BME280;3945;48.952;9.506;2022-07-23T06:54:52;98055.38;;;24.70;60.75
7802;BME280;3945;48.952;9.506;2022-07-23T06:57:19;98064.34;;;24.70;60.99
7802;BME280;3945;48.952;9.506;2022-07-23T06:59:45;98073.91;;;24.76;61.27
7802;BME280;3945;48.952;9.506;2022-07-23T07:02:11;98069.97;;;24.95;60.64
7802;BME280;3945;48.952;9.506;2022-07-23T07:04:39;98075.09;;;25.17;60.18
7802;BME280;3945;48.952;9.506;2022-07-23T07:07:05;98077.69;;;25.34;59.73
7802;BME280;3945;48.952;9.506;2022-07-23T07:09:31;98084.59;;;25.52;59.70
7802;BME280;3945;48.952;9.506;2022-07-23T07:11:58;98093.81;;;25.81;58.49
7802;BME280;3945;48.952;9.506;2022-07-23T07:14:24;98101.50;;;25.99;58.04
7802;BME280;3945;48.952;9.506;2022-07-23T07:16:50;98103.72;;;25.85;58.36
7802;BME280;3945;48.952;9.506;2022-07-23T07:19:17;98129.88;;;25.65;59.21
7802;BME280;3945;48.952;9.506;2022-07-23T07:21:44;98134.41;;;25.41;59.97
7802;BME280;3945;48.952;9.506;2022-07-23T07:24:10;98143.88;;;25.14;60.54
7802;BME280;3945;48.952;9.506;2022-07-23T07:26:37;98151.34;;;24.96;60.96
7802;BME280;3945;48.952;9.506;2022-07-23T07:29:04;98150.75;;;24.82;61.92
7802;BME280;3945;48.952;9.506;2022-07-23T07:31:30;98162.69;;;24.69;61.87
7802;BME280;3945;48.952;9.506;2022-07-23T07:33:57;98153.13;;;24.54;62.88
7802;BME280;3945;48.952;9.506;2022-07-23T07:36:24;98151.56;;;24.44;63.08
7802;BME280;3945;48.952;9.506;2022-07-23T07:38:51;98148.22;;;24.39;63.55
7802;BME280;3945;48.952;9.506;2022-07-23T07:41:18;98133.81;;;24.38;64.35
7802;BME280;3945;48.952;9.506;2022-07-23T07:43:47;98141.34;;;24.41;64.19
7802;BME280;3945;48.952;9.506;2022-07-23T07:46:14;98142.44;;;24.40;64.72
7802;BME280;3945;48.952;9.506;2022-07-23T07:48:42;98137.34;;;24.39;64.38
7802;BME280;3945;48.952;9.506;2022-07-23T07:51:09;98129.16;;;24.39;64.06
7802;BME280;3945;48.952;9.506;2022-07-23T07:53:35;98116.72;;;24.29;64.92
7802;BME280;3945;48.952;9.506;2022-07-23T07:56:03;98095.44;;;24.31;64.61
7802;BME280;3945;48.952;9.506;2022-07-23T07:58:29;98102.19;;;24.25;62.51
7802;BME280;3945;48.952;9.506;2022-07-23T08:00:56;98114.66;;;24.18;64.21
7802;BME280;3945;48.952;9.506;2022-07-23T08:03:22;98114.16;;;24.16;65.27
7802;BME280;3945;48.952;9.506;2022-07-23T08:05:48;98105.19;;;24.15;66.56
7802;BME280;3945;48.952;9.506;2022-07-23T08:08:15;98107.59;;;24.17;65.87
7802;BME280;3945;48.952;9.506;2022-07-23T08:10:41;98113.84;;;24.26;66.38
7802;BME280;3945;48.952;9.506;2022-07-23T08:13:11;98133.19;;;24.33;65.97
7802;BME280;3945;48.952;9.506;2022-07-23T08:15:38;98137.47;;;24.42;65.62
7802;BME280;3945;48.952;9.506;2022-07-23T08:18:04;98141.13;;;24.55;67.53
7802;BME280;3945;48.952;9.506;2022-07-23T08:20:30;98152.59;;;24.69;67.09
7802;BME280;3945;48.952;9.506;2022-07-23T08:22:57;98157.00;;;24.82;64.01
7802;BME280;3945;48.952;9.506;2022-07-23T08:25:25;98165.66;;;24.84;63.17
7802;BME280;3945;48.952;9.506;2022-07-23T08:27:51;98168.22;;;24.81;62.27
7802;BME280;3945;48.952;9.506;2022-07-23T08:30:19;98169.06;;;24.64;65.33
7802;BME280;3945;48.952;9.506;2022-07-23T08:32:50;98170.25;;;24.55;66.89
7802;BME280;3945;48.952;9.506;2022-07-23T08:35:16;98175.25;;;24.35;67.47
7802;BME280;3945;48.952;9.506;2022-07-23T08:37:43;98172.72;;;24.22;67.94
7802;BME280;3945;48.952;9.506;2022-07-23T08:40:09;98185.19;;;24.14;67.84
7802;BME280;3945;48.952;9.506;2022-07-23T08:42:36;98184.75;;;24.03;67.53
7802;BME280;3945;48.952;9.506;2022-07-23T08:45:03;98189.56;;;23.98;67.68
7802;BME280;3945;48.952;9.506;2022-07-23T08:47:31;98190.06;;;23.91;68.30
7802;BME280;3945;48.952;9.506;2022-07-23T08:49:57;98184.28;;;23.93;68.75
7802;BME280;3945;48.952;9.506;2022-07-23T08:52:24;98180.44;;;23.94;69.44
7802;BME280;3945;48.952;9.506;2022-07-23T08:54:51;98168.28;;;23.91;69.67
7802;BME280;3945;48.952;9.506;2022-07-23T08:57:18;98169.56;;;23.94;70.12
7802;BME280;3945;48.952;9.506;2022-07-23T08:59:44;98154.03;;;24.03;70.20
7802;BME280;3945;48.952;9.506;2022-07-23T09:02:11;98149.88;;;24.05;70.77
7802;BME280;3945;48.952;9.506;2022-07-23T09:04:39;98163.44;;;24.14;69.75
7802;BME280;3945;48.952;9.506;2022-07-23T09:07:05;98174.03;;;24.24;69.45
7802;BME280;3945;48.952;9.506;2022-07-23T09:09:32;98168.56;;;24.33;68.55
7802;BME280;3945;48.952;9.506;2022-07-23T09:12:02;98169.63;;;24.49;67.94
7802;BME280;3945;48.952;9.506;2022-07-23T09:14:36;98168.25;;;24.72;68.92
7802;BME280;3945;48.952;9.506;2022-07-23T09:17:08;98164.41;;;25.11;66.58
7802;BME280;3945;48.952;9.506;2022-07-23T09:19:34;98168.59;;;25.59;65.53
7802;BME280;3945;48.952;9.506;2022-07-23T09:25:05;98162.31;;;26.45;60.88
7802;BME280;3945;48.952;9.506;2022-07-23T09:27:45;98161.09;;;26.67;62.20
7802;BME280;3945;48.952;9.506;2022-07-23T09:30:12;98153.13;;;26.74;60.89
7802;BME280;3945;48.952;9.506;2022-07-23T09:32:38;98149.97;;;26.96;60.01
7802;BME280;3945;48.952;9.506;2022-07-23T09:35:05;98153.16;;;27.23;56.36
7802;BME280;3945;48.952;9.506;2022-07-23T09:37:32;98143.06;;;27.51;56.68
7802;BME280;3945;48.952;9.506;2022-07-23T09:40:04;98144.72;;;27.80;57.00
7802;BME280;3945;48.952;9.506;2022-07-23T09:42:31;98146.06;;;27.86;54.59
7802;BME280;3945;48.952;9.506;2022-07-23T09:44:58;98150.88;;;27.77;54.78
7802;BME280;3945;48.952;9.506;2022-07-23T09:47:25;98147.69;;;27.75;54.11
7802;BME280;3945;48.952;9.506;2022-07-23T09:49:59;98160.63;;;28.18;55.62
7802;BME280;3945;48.952;9.506;2022-07-23T09:52:26;98148.47;;;28.62;51.14
7802;BME280;3945;48.952;9.506;2022-07-23T09:54:57;98159.97;;;28.99;49.89
7802;BME280;3945;48.952;9.506;2022-07-23T09:57:25;98156.22;;;29.58;47.77
7802;BME280;3945;48.952;9.506;2022-07-23T09:59:52;98144.06;;;29.94;49.67
7802;BME280;3945;48.952;9.506;2022-07-23T10:02:18;98157.97;;;30.47;46.56
7802;BME280;3945;48.952;9.506;2022-07-23T10:04:45;98153.28;;;30.70;46.13
7802;BME280;3945;48.952;9.506;2022-07-23T10:07:12;98152.28;;;31.04;46.81
7802;BME280;3945;48.952;9.506;2022-07-23T10:09:40;98149.47;;;31.54;46.22
7802;BME280;3945;48.952;9.506;2022-07-23T10:12:09;98145.28;;;31.97;43.77
7802;BME280;3945;48.952;9.506;2022-07-23T10:14:50;98144.84;;;32.28;44.78
7802;BME280;3945;48.952;9.506;2022-07-23T10:17:17;98142.69;;;32.48;44.67
7802;BME280;3945;48.952;9.506;2022-07-23T10:19:43;98143.19;;;32.61;43.25
7802;BME280;3945;48.952;9.506;2022-07-23T10:22:11;98144.94;;;32.79;42.22
7802;BME280;3945;48.952;9.506;2022-07-23T10:24:49;98138.13;;;33.14;42.48
7802;BME280;3945;48.952;9.506;2022-07-23T10:27:20;98140.69;;;33.47;42.22
7802;BME280;3945;48.952;9.506;2022-07-23T10:29:57;98135.31;;;33.79;39.99
7802;BME280;3945;48.952;9.506;2022-07-23T10:32:26;98135.03;;;34.05;37.49
7802;BME280;3945;48.952;9.506;2022-07-23T10:34:58;98135.03;;;34.13;38.39
7802;BME280;3945;48.952;9.506;2022-07-23T10:37:27;98135.09;;;34.23;39.74
7802;BME280;3945;48.952;9.506;2022-07-23T10:40:09;98132.69;;;34.18;38.75
7802;BME280;3945;48.952;9.506;2022-07-23T10:42:36;98130.75;;;34.26;37.14
7802;BME280;3945;48.952;9.506;2022-07-23T10:45:06;98144.13;;;34.06;37.41
7802;BME280;3945;48.952;9.506;2022-07-23T10:47:47;98130.69;;;34.04;36.11
7802;BME280;3945;48.952;9.506;2022-07-23T10:50:23;98128.69;;;33.91;37.25
7802;BME280;3945;48.952;9.506;2022-07-23T10:53:09;98132.63;;;33.97;39.30
7802;BME280;3945;48.952;9.506;2022-07-23T10:55:41;98141.38;;;34.13;38.62
7802;BME280;3945;48.952;9.506;2022-07-23T10:58:08;98138.94;;;33.97;37.46
7802;BME280;3945;48.952;9.506;2022-07-23T11:00:36;98130.63;;;33.83;37.32
7802;BME280;3945;48.952;9.506;2022-07-23T11:03:03;98129.78;;;33.72;37.68
7802;BME280;3945;48.952;9.506;2022-07-23T11:05:39;98131.38;;;33.77;38.14
7802;BME280;3945;48.952;9.506;2022-07-23T11:10:53;98130.63;;;33.87;38.35
7802;BME280;3945;48.952;9.506;2022-07-23T11:13:30;98138.09;;;33.86;37.61
7802;BME280;3945;48.952;9.506;2022-07-23T11:18:54;98137.78;;;34.05;37.25
7802;BME280;3945;48.952;9.506;2022-07-23T11:24:07;98136.25;;;34.22;38.48
7802;BME280;3945;48.952;9.506;2022-07-23T11:26:40;98135.13;;;34.34;37.34
7802;BME280;3945;48.952;9.506;2022-07-23T11:31:51;98125.63;;;34.53;39.55
7802;BME280;3945;48.952;9.506;2022-07-23T11:37:03;98113.78;;;34.34;35.91
7802;BME280;3945;48.952;9.506;2022-07-23T11:39:30;98119.69;;;34.26;37.31
7802;BME280;3945;48.952;9.506;2022-07-23T11:41:57;98118.13;;;34.35;36.52
7802;BME280;3945;48.952;9.506;2022-07-23T11:44:24;98124.84;;;34.27;37.62
7802;BME280;3945;48.952;9.506;2022-07-23T11:46:54;98117.34;;;34.35;38.31
7802;BME280;3945;48.952;9.506;2022-07-23T11:49:21;98114.13;;;34.19;35.91
7802;BME280;3945;48.952;9.506;2022-07-23T11:51:47;98119.63;;;34.04;36.50
7802;BME280;3945;48.952;9.506;2022-07-23T11:54:29;98112.75;;;33.66;38.04
7802;BME280;3945;48.952;9.506;2022-07-23T11:56:55;98109.53;;;33.47;37.64
7802;BME280;3945;48.952;9.506;2022-07-23T11:59:22;98110.91;;;33.16;37.34
7802;BME280;3945;48.952;9.506;2022-07-23T12:01:56;98117.47;;;32.93;37.92
7802;BME280;3945;48.952;9.506;2022-07-23T12:04:23;98107.88;;;32.70;38.53
7802;BME280;3945;48.952;9.506;2022-07-23T12:06:49;98112.47;;;32.58;38.95
7802;BME280;3945;48.952;9.506;2022-07-23T12:09:15;98114.84;;;32.60;39.00
7802;BME280;3945;48.952;9.506;2022-07-23T12:11:57;98112.31;;;32.41;39.29
7802;BME280;3945;48.952;9.506;2022-07-23T12:14:23;98117.41;;;32.39;39.02
7802;BME280;3945;48.952;9.506;2022-07-23T12:19:31;98103.25;;;32.40;42.58
7802;BME280;3945;48.952;9.506;2022-07-23T12:21:57;98097.38;;;32.89;40.54
7802;BME280;3945;48.952;9.506;2022-07-23T12:24:23;98098.81;;;33.27;38.42
7802;BME280;3945;48.952;9.506;2022-07-23T12:29:35;98103.53;;;32.72;38.72
7802;BME280;3945;48.952;9.506;2022-07-23T12:32:01;98105.16;;;32.80;40.21
7802;BME280;3945;48.952;9.506;2022-07-23T12:34:28;98100.63;;;33.09;41.07
7802;BME280;3945;48.952;9.506;2022-07-23T12:36:54;98099.88;;;33.16;39.69
7802;BME280;3945;48.952;9.506;2022-07-23T12:39:29;98089.75;;;33.30;39.64
7802;BME280;3945;48.952;9.506;2022-07-23T12:41:55;98103.91;;;33.29;39.68
7802;BME280;3945;48.952;9.506;2022-07-23T12:44:21;98113.75;;;33.23;39.67
7802;BME280;3945;48.952;9.506;2022-07-23T12:46:50;98109.09;;;33.38;39.02
7802;BME280;3945;48.952;9.506;2022-07-23T12:49:24;98104.47;;;33.56;38.79
7802;BME280;3945;48.952;9.506;2022-07-23T12:51:51;98114.75;;;33.69;38.51
7802;BME280;3945;48.952;9.506;2022-07-23T12:54:17;98117.50;;;33.66;38.51
7802;BME280;3945;48.952;9.506;2022-07-23T12:56:44;98122.09;;;33.37;39.15
7802;BME280;3945;48.952;9.506;2022-07-23T12:59:11;98116.13;;;33.24;39.04
7802;BME280;3945;48.952;9.506;2022-07-23T13:01:40;98110.59;;;33.24;37.70
7802;BME280;3945;48.952;9.506;2022-07-23T13:04:09;98108.63;;;33.25;40.30
7802;BME280;3945;48.952;9.506;2022-07-23T13:06:36;98115.25;;;33.13;40.19
7802;BME280;3945;48.952;9.506;2022-07-23T13:09:04;98121.44;;;33.00;39.42
7802;BME280;3945;48.952;9.506;2022-07-23T13:11:31;98108.34;;;32.86;39.13
7802;BME280;3945;48.952;9.506;2022-07-23T13:13:57;98114.72;;;32.93;38.97
7802;BME280;3945;48.952;9.506;2022-07-23T13:16:25;98111.00;;;32.68;40.67
7802;BME280;3945;48.952;9.506;2022-07-23T13:18:51;98115.53;;;32.50;40.61
7802;BME280;3945;48.952;9.506;2022-07-23T13:21:19;98112.13;;;32.23;40.40
7802;BME280;3945;48.952;9.506;2022-07-23T13:23:45;98119.25;;;32.24;41.39
7802;BME280;3945;48.952;9.506;2022-07-23T13:26:12;98111.84;;;32.35;40.62
7802;BME280;3945;48.952;9.506;2022-07-23T13:28:38;98105.19;;;32.36;39.93
7802;BME280;3945;48.952;9.506;2022-07-23T13:31:04;98105.25;;;32.43;41.25
7802;BME280;3945;48.952;9.506;2022-07-23T13:33:31;98108.72;;;32.37;39.90
7802;BME280;3945;48.952;9.506;2022-07-23T13:35:57;98111.28;;;32.15;40.93
7802;BME280;3945;48.952;9.506;2022-07-23T13:38:25;98110.38;;;32.08;39.82
7802;BME280;3945;48.952;9.506;2022-07-23T13:40:51;98110.81;;;32.10;42.03
7802;BME280;3945;48.952;9.506;2022-07-23T13:43:19;98112.03;;;32.12;41.30
7802;BME280;3945;48.952;9.506;2022-07-23T13:45:45;98120.28;;;32.12;41.87